sensor_id;sensor_type;location;lat;lon;timestamp;P1;durP1;ratioP1;P2;durP2;ratioP2
26435;SDS011;15351;52.408;16.826;2023-04-21T00:01:35;17.50;;;15.00;;
26435;SDS011;15351;52.408;16.826;2023-04-21T00:04:38;19.30;;;15.70;;
26435;SDS011;15351;52.408;16.826;2023-04-21T00:08:43;20.40;;;15.90;;
26435;SDS011;15351;52.408;16.826;2023-04-21T00:11:21;18.50;;;15.70;;
26435;SDS011;15351;52.408;16.826;2023-04-21T00:14:14;21.00;;;15.40;;
26435;SDS011;15351;52.408;16.826;2023-04-21T00:20:46;22.90;;;15.30;;
26435;SDS011;15351;52.408;16.826;2023-04-21T00:23:36;21.60;;;16.40;;
26435;SDS011;15351;52.408;16.826;2023-04-21T00:27:09;19.20;;;16.20;;
26435;SDS011;15351;52.408;16.826;2023-04-21T00:30:27;19.80;;;16.50;;
26435;SDS011;15351;52.408;16.826;2023-04-21T00:34:04;19.60;;;16.40;;
26435;SDS011;15351;52.408;16.826;2023-04-21T00:40:13;22.10;;;15.80;;
26435;SDS011;15351;52.408;16.826;2023-04-21T00:46:28;20.50;;;16.40;;
26435;SDS011;15351;52.408;16.826;2023-04-21T00:55:44;23.30;;;16.80;;
26435;SDS011;15351;52.408;16.826;2023-04-21T00:58:17;26.00;;;16.40;;
26435;SDS011;15351;52.408;16.826;2023-04-21T01:00:54;20.10;;;15.90;;
26435;SDS011;15351;52.408;16.826;2023-04-21T01:03:25;18.90;;;15.90;;
26435;SDS011;15351;52.408;16.826;2023-04-21T01:09:50;20.00;;;16.30;;
26435;SDS011;15351;52.408;16.826;2023-04-21T01:14:19;22.10;;;16.70;;
26435;SDS011;15351;52.408;16.826;2023-04-21T01:17:05;24.00;;;16.80;;
26435;SDS011;15351;52.408;16.826;2023-04-21T01:19:38;22.00;;;16.50;;
26435;SDS011;15351;52.408;16.826;2023-04-21T01:25:56;20.00;;;16.50;;
26435;SDS011;15351;52.408;16.826;2023-04-21T01:28:36;21.10;;;16.50;;
26435;SDS011;15351;52.408;16.826;2023-04-21T01:31:46;20.30;;;16.80;;
26435;SDS011;15351;52.408;16.826;2023-04-21T01:34:33;20.20;;;16.60;;
26435;SDS011;15351;52.408;16.826;2023-04-21T01:37:11;21.80;;;16.90;;
26435;SDS011;15351;52.408;16.826;2023-04-21T01:40:10;20.40;;;17.00;;
26435;SDS011;15351;52.408;16.826;2023-04-21T01:42:53;24.20;;;17.00;;
26435;SDS011;15351;52.408;16.826;2023-04-21T01:45:40;22.20;;;16.10;;
26435;SDS011;15351;52.408;16.826;2023-04-21T01:48:07;21.20;;;15.70;;
26435;SDS011;15351;52.408;16.826;2023-04-21T01:50:40;19.20;;;16.10;;
26435;SDS011;15351;52.408;16.826;2023-04-21T01:53:23;20.60;;;16.40;;
26435;SDS011;15351;52.408;16.826;2023-04-21T01:56:06;20.20;;;16.40;;
26435;SDS011;15351;52.408;16.826;2023-04-21T01:58:33;19.70;;;16.10;;
26435;SDS011;15351;52.408;16.826;2023-04-21T02:01:02;18.90;;;16.10;;
26435;SDS011;15351;52.408;16.826;2023-04-21T02:03:30;22.20;;;16.60;;
26435;SDS011;15351;52.408;16.826;2023-04-21T02:06:09;21.70;;;16.00;;
26435;SDS011;15351;52.408;16.826;2023-04-21T02:08:42;21.00;;;15.30;;
26435;SDS011;15351;52.408;16.826;2023-04-21T02:11:10;19.90;;;15.50;;
26435;SDS011;15351;52.408;16.826;2023-04-21T02:13:43;19.10;;;15.90;;
26435;SDS011;15351;52.408;16.826;2023-04-21T02:16:13;19.60;;;16.00;;
26435;SDS011;15351;52.408;16.826;2023-04-21T02:18:41;18.70;;;15.80;;
26435;SDS011;15351;52.408;16.826;2023-04-21T02:21:11;20.50;;;16.20;;
26435;SDS011;15351;52.408;16.826;2023-04-21T02:23:57;22.70;;;16.50;;
26435;SDS011;15351;52.408;16.826;2023-04-21T02:26:26;21.60;;;15.60;;
26435;SDS011;15351;52.408;16.826;2023-04-21T02:29:02;19.30;;;15.60;;
26435;SDS011;15351;52.408;16.826;2023-04-21T02:31:40;20.10;;;15.90;;
26435;SDS011;15351;52.408;16.826;2023-04-21T02:34:16;20.60;;;16.30;;
26435;SDS011;15351;52.408;16.826;2023-04-21T02:36:44;19.00;;;16.00;;
26435;SDS011;15351;52.408;16.826;2023-04-21T02:39:16;18.60;;;16.10;;
26435;SDS011;15351;52.408;16.826;2023-04-21T02:41:53;20.30;;;16.40;;
26435;SDS011;15351;52.408;16.826;2023-04-21T02:44:23;22.20;;;16.60;;
26435;SDS011;15351;52.408;16.826;2023-04-21T02:47:04;22.90;;;16.10;;
26435;SDS011;15351;52.408;16.826;2023-04-21T02:49:32;21.30;;;15.60;;
26435;SDS011;15351;52.408;16.826;2023-04-21T02:52:00;17.20;;;15.10;;
26435;SDS011;15351;52.408;16.826;2023-04-21T02:54:32;19.80;;;15.80;;
26435;SDS011;15351;52.408;16.826;2023-04-21T02:57:03;20.00;;;16.00;;
26435;SDS011;15351;52.408;16.826;2023-04-21T02:59:36;20.70;;;15.90;;
26435;SDS011;15351;52.408;16.826;2023-04-21T03:02:03;18.50;;;16.20;;
26435;SDS011;15351;52.408;16.826;2023-04-21T03:04:32;21.20;;;16.90;;
26435;SDS011;15351;52.408;16.826;2023-04-21T03:07:02;25.30;;;15.70;;
26435;SDS011;15351;52.408;16.826;2023-04-21T03:09:40;17.70;;;14.10;;
26435;SDS011;15351;52.408;16.826;2023-04-21T03:12:17;21.20;;;15.30;;
26435;SDS011;15351;52.408;16.826;2023-04-21T03:14:52;18.90;;;15.40;;
26435;SDS011;15351;52.408;16.826;2023-04-21T03:17:21;18.00;;;15.40;;
26435;SDS011;15351;52.408;16.826;2023-04-21T03:19:49;18.70;;;15.60;;
26435;SDS011;15351;52.408;16.826;2023-04-21T03:22:37;20.10;;;16.20;;
26435;SDS011;15351;52.408;16.826;2023-04-21T03:25:04;19.70;;;15.90;;
26435;SDS011;15351;52.408;16.826;2023-04-21T03:27:54;18.80;;;15.80;;
26435;SDS011;15351;52.408;16.826;2023-04-21T03:30:21;20.30;;;15.50;;
26435;SDS011;15351;52.408;16.826;2023-04-21T03:32:52;17.30;;;14.60;;
26435;SDS011;15351;52.408;16.826;2023-04-21T03:35:27;18.20;;;14.80;;
26435;SDS011;15351;52.408;16.826;2023-04-21T03:37:54;20.00;;;15.50;;
26435;SDS011;15351;52.408;16.826;2023-04-21T03:40:21;18.20;;;14.90;;
26435;SDS011;15351;52.408;16.826;2023-04-21T03:43:09;20.70;;;15.10;;
26435;SDS011;15351;52.408;16.826;2023-04-21T03:45:36;19.70;;;15.70;;
26435;SDS011;15351;52.408;16.826;2023-04-21T03:48:03;17.80;;;15.50;;
26435;SDS011;15351;52.408;16.826;2023-04-21T03:50:31;18.30;;;15.00;;
26435;SDS011;15351;52.408;16.826;2023-04-21T03:53:00;22.50;;;15.10;;
26435;SDS011;15351;52.408;16.826;2023-04-21T03:55:33;19.50;;;14.30;;
26435;SDS011;15351;52.408;16.826;2023-04-21T03:58:04;16.90;;;13.90;;
26435;SDS011;15351;52.408;16.826;2023-04-21T04:00:38;17.70;;;14.30;;
26435;SDS011;15351;52.408;16.826;2023-04-21T04:03:09;18.30;;;14.90;;
26435;SDS011;15351;52.408;16.826;2023-04-21T04:05:36;16.80;;;14.50;;
26435;SDS011;15351;52.408;16.826;2023-04-21T04:08:06;21.60;;;14.70;;
26435;SDS011;15351;52.408;16.826;2023-04-21T04:10:34;22.80;;;14.50;;
26435;SDS011;15351;52.408;16.826;2023-04-21T04:13:10;19.30;;;15.40;;
26435;SDS011;15351;52.408;16.826;2023-04-21T04:15:41;32.60;;;16.10;;
26435;SDS011;15351;52.408;16.826;2023-04-21T04:18:20;23.40;;;15.60;;
26435;SDS011;15351;52.408;16.826;2023-04-21T04:20:54;20.40;;;14.50;;
26435;SDS011;15351;52.408;16.826;2023-04-21T04:23:46;18.40;;;13.50;;
26435;SDS011;15351;52.408;16.826;2023-04-21T04:26:18;18.70;;;13.80;;
26435;SDS011;15351;52.408;16.826;2023-04-21T04:28:53;17.40;;;13.80;;
26435;SDS011;15351;52.408;16.826;2023-04-21T04:31:36;16.80;;;14.00;;
26435;SDS011;15351;52.408;16.826;2023-04-21T04:34:03;17.00;;;14.30;;
26435;SDS011;15351;52.408;16.826;2023-04-21T04:36:35;17.20;;;14.40;;
26435;SDS011;15351;52.408;16.826;2023-04-21T04:39:02;18.80;;;14.80;;
26435;SDS011;15351;52.408;16.826;2023-04-21T04:41:32;18.00;;;14.10;;
26435;SDS011;15351;52.408;16.826;2023-04-21T04:44:07;21.00;;;14.40;;
26435;SDS011;15351;52.408;16.826;2023-04-21T04:46:37;21.20;;;13.70;;
26435;SDS011;15351;52.408;16.826;2023-04-21T04:49:29;15.90;;;13.20;;
26435;SDS011;15351;52.408;16.826;2023-04-21T04:55:00;18.60;;;13.60;;
26435;SDS011;15351;52.408;16.826;2023-04-21T04:57:56;19.30;;;14.00;;
26435;SDS011;15351;52.408;16.826;2023-04-21T05:00:48;16.60;;;13.30;;
26435;SDS011;15351;52.408;16.826;2023-04-21T05:03:15;18.00;;;13.90;;
26435;SDS011;15351;52.408;16.826;2023-04-21T05:05:46;17.90;;;13.20;;
26435;SDS011;15351;52.408;16.826;2023-04-21T05:08:38;21.10;;;13.80;;
26435;SDS011;15351;52.408;16.826;2023-04-21T05:11:09;16.70;;;13.60;;
26435;SDS011;15351;52.408;16.826;2023-04-21T05:13:37;17.10;;;13.50;;
26435;SDS011;15351;52.408;16.826;2023-04-21T05:16:05;21.20;;;14.10;;
26435;SDS011;15351;52.408;16.826;2023-04-21T05:18:48;16.70;;;13.70;;
26435;SDS011;15351;52.408;16.826;2023-04-21T05:21:26;20.20;;;13.50;;
26435;SDS011;15351;52.408;16.826;2023-04-21T05:25:00;16.00;;;12.30;;
26435;SDS011;15351;52.408;16.826;2023-04-21T05:27:29;16.00;;;12.60;;
26435;SDS011;15351;52.408;16.826;2023-04-21T05:29:58;16.40;;;12.50;;
26435;SDS011;15351;52.408;16.826;2023-04-21T05:32:54;16.90;;;12.40;;
26435;SDS011;15351;52.408;16.826;2023-04-21T05:38:19;16.90;;;12.90;;
26435;SDS011;15351;52.408;16.826;2023-04-21T05:40:55;17.10;;;12.80;;
26435;SDS011;15351;52.408;16.826;2023-04-21T05:46:14;16.50;;;12.80;;
26435;SDS011;15351;52.408;16.826;2023-04-21T05:48:45;19.40;;;12.80;;
26435;SDS011;15351;52.408;16.826;2023-04-21T05:51:19;25.80;;;13.20;;
26435;SDS011;15351;52.408;16.826;2023-04-21T05:54:29;17.20;;;12.70;;
26435;SDS011;15351;52.408;16.826;2023-04-21T05:57:15;17.80;;;12.70;;
26435;SDS011;15351;52.408;16.826;2023-04-21T05:59:53;19.20;;;12.30;;
26435;SDS011;15351;52.408;16.826;2023-04-21T06:02:21;18.30;;;12.50;;
26435;SDS011;15351;52.408;16.826;2023-04-21T06:04:55;17.10;;;12.40;;
26435;SDS011;15351;52.408;16.826;2023-04-21T06:07:22;15.90;;;12.20;;
26435;SDS011;15351;52.408;16.826;2023-04-21T06:09:51;16.80;;;12.10;;
26435;SDS011;15351;52.408;16.826;2023-04-21T06:12:26;17.60;;;12.30;;
26435;SDS011;15351;52.408;16.826;2023-04-21T06:15:02;18.80;;;12.30;;
26435;SDS011;15351;52.408;16.826;2023-04-21T06:17:42;18.50;;;11.80;;
26435;SDS011;15351;52.408;16.826;2023-04-21T06:20:18;20.40;;;12.40;;
26435;SDS011;15351;52.408;16.826;2023-04-21T06:22:45;16.80;;;11.90;;
26435;SDS011;15351;52.408;16.826;2023-04-21T06:25:16;14.70;;;11.70;;
26435;SDS011;15351;52.408;16.826;2023-04-21T06:27:45;21.20;;;11.90;;
26435;SDS011;15351;52.408;16.826;2023-04-21T06:30:30;15.00;;;11.40;;
26435;SDS011;15351;52.408;16.826;2023-04-21T06:33:23;17.10;;;11.50;;
26435;SDS011;15351;52.408;16.826;2023-04-21T06:35:55;14.90;;;11.10;;
26435;SDS011;15351;52.408;16.826;2023-04-21T06:38:39;15.70;;;11.50;;
26435;SDS011;15351;52.408;16.826;2023-04-21T06:41:10;15.60;;;11.60;;
26435;SDS011;15351;52.408;16.826;2023-04-21T06:43:38;15.00;;;11.00;;
26435;SDS011;15351;52.408;16.826;2023-04-21T06:46:18;16.20;;;11.60;;
26435;SDS011;15351;52.408;16.826;2023-04-21T06:48:55;17.30;;;12.00;;
26435;SDS011;15351;52.408;16.826;2023-04-21T06:51:25;15.80;;;11.00;;
26435;SDS011;15351;52.408;16.826;2023-04-21T06:53:55;15.70;;;11.20;;
26435;SDS011;15351;52.408;16.826;2023-04-21T06:56:36;14.90;;;10.70;;
26435;SDS011;15351;52.408;16.826;2023-04-21T06:59:10;15.50;;;11.20;;
26435;SDS011;15351;52.408;16.826;2023-04-21T07:01:41;14.40;;;10.80;;
26435;SDS011;15351;52.408;16.826;2023-04-21T07:04:31;21.80;;;11.60;;
26435;SDS011;15351;52.408;16.826;2023-04-21T07:06:59;20.60;;;10.90;;
26435;SDS011;15351;52.408;16.826;2023-04-21T07:09:26;16.90;;;11.20;;
26435;SDS011;15351;52.408;16.826;2023-04-21T07:11:54;14.70;;;10.70;;
26435;SDS011;15351;52.408;16.826;2023-04-21T07:14:24;14.20;;;10.80;;
26435;SDS011;15351;52.408;16.826;2023-04-21T07:16:51;17.30;;;10.40;;
26435;SDS011;15351;52.408;16.826;2023-04-21T07:19:20;15.20;;;10.80;;
26435;SDS011;15351;52.408;16.826;2023-04-21T07:21:54;16.30;;;10.50;;
26435;SDS011;15351;52.408;16.826;2023-04-21T07:24:25;13.50;;;10.60;;
26435;SDS011;15351;52.408;16.826;2023-04-21T07:26:55;13.80;;;10.30;;
26435;SDS011;15351;52.408;16.826;2023-04-21T07:29:24;14.20;;;10.80;;
26435;SDS011;15351;52.408;16.826;2023-04-21T07:32:04;16.90;;;10.80;;
26435;SDS011;15351;52.408;16.826;2023-04-21T07:34:33;14.10;;;9.90;;
26435;SDS011;15351;52.408;16.826;2023-04-21T07:37:00;12.70;;;10.10;;
26435;SDS011;15351;52.408;16.826;2023-04-21T07:39:35;13.80;;;9.70;;
26435;SDS011;15351;52.408;16.826;2023-04-21T07:42:05;13.70;;;10.50;;
26435;SDS011;15351;52.408;16.826;2023-04-21T07:44:48;14.10;;;9.60;;
26435;SDS011;15351;52.408;16.826;2023-04-21T07:47:18;12.70;;;9.60;;
26435;SDS011;15351;52.408;16.826;2023-04-21T07:49:49;13.50;;;9.30;;
26435;SDS011;15351;52.408;16.826;2023-04-21T07:52:19;12.50;;;9.20;;
26435;SDS011;15351;52.408;16.826;2023-04-21T07:55:15;10.90;;;8.90;;
26435;SDS011;15351;52.408;16.826;2023-04-21T07:57:51;12.50;;;9.30;;
26435;SDS011;15351;52.408;16.826;2023-04-21T08:00:27;13.90;;;9.40;;
26435;SDS011;15351;52.408;16.826;2023-04-21T08:02:54;14.70;;;9.40;;
26435;SDS011;15351;52.408;16.826;2023-04-21T08:05:49;14.00;;;8.50;;
26435;SDS011;15351;52.408;16.826;2023-04-21T08:08:20;12.70;;;8.90;;
26435;SDS011;15351;52.408;16.826;2023-04-21T08:10:53;12.60;;;8.80;;
26435;SDS011;15351;52.408;16.826;2023-04-21T08:13:33;13.60;;;8.50;;
26435;SDS011;15351;52.408;16.826;2023-04-21T08:16:05;11.80;;;7.90;;
26435;SDS011;15351;52.408;16.826;2023-04-21T08:22:08;11.90;;;7.90;;
26435;SDS011;15351;52.408;16.826;2023-04-21T08:24:58;10.30;;;7.70;;
26435;SDS011;15351;52.408;16.826;2023-04-21T08:27:30;12.30;;;7.40;;
26435;SDS011;15351;52.408;16.826;2023-04-21T08:30:00;9.60;;;7.20;;
26435;SDS011;15351;52.408;16.826;2023-04-21T08:32:27;10.10;;;7.10;;
26435;SDS011;15351;52.408;16.826;2023-04-21T08:34:57;10.00;;;7.00;;
26435;SDS011;15351;52.408;16.826;2023-04-21T08:37:37;9.10;;;6.30;;
26435;SDS011;15351;52.408;16.826;2023-04-21T08:41:06;8.60;;;6.20;;
26435;SDS011;15351;52.408;16.826;2023-04-21T08:43:11;9.90;;;6.50;;
26435;SDS011;15351;52.408;16.826;2023-04-21T08:51:38;7.90;;;6.20;;
26435;SDS011;15351;52.408;16.826;2023-04-21T08:54:07;8.40;;;6.00;;
26435;SDS011;15351;52.408;16.826;2023-04-21T09:11:09;59.60;;;13.20;;
26435;SDS011;15351;52.408;16.826;2023-04-21T09:19:25;11.30;;;5.90;;
26435;SDS011;15351;52.408;16.826;2023-04-21T09:22:25;9.00;;;5.40;;
26435;SDS011;15351;52.408;16.826;2023-04-21T09:27:53;9.50;;;5.60;;
26435;SDS011;15351;52.408;16.826;2023-04-21T09:36:34;9.90;;;6.00;;
26435;SDS011;15351;52.408;16.826;2023-04-21T09:39:15;8.60;;;5.70;;
26435;SDS011;15351;52.408;16.826;2023-04-21T09:45:19;14.80;;;6.50;;
26435;SDS011;15351;52.408;16.826;2023-04-21T09:48:14;11.70;;;5.70;;
26435;SDS011;15351;52.408;16.826;2023-04-21T10:26:21;8.60;;;5.40;;
26435;SDS011;15351;52.408;16.826;2023-04-21T10:29:03;14.10;;;5.50;;
26435;SDS011;15351;52.408;16.826;2023-04-21T10:31:53;8.10;;;5.50;;
26435;SDS011;15351;52.408;16.826;2023-04-21T10:34:27;8.70;;;5.30;;
26435;SDS011;15351;52.408;16.826;2023-04-21T10:37:09;7.80;;;5.20;;
26435;SDS011;15351;52.408;16.826;2023-04-21T10:39:48;7.90;;;5.50;;
26435;SDS011;15351;52.408;16.826;2023-04-21T10:42:32;7.60;;;5.30;;
26435;SDS011;15351;52.408;16.826;2023-04-21T10:48:19;6.80;;;5.60;;
26435;SDS011;15351;52.408;16.826;2023-04-21T10:51:00;8.00;;;5.40;;
26435;SDS011;15351;52.408;16.826;2023-04-21T10:53:27;9.20;;;5.50;;
26435;SDS011;15351;52.408;16.826;2023-04-21T10:56:07;10.60;;;5.80;;
26435;SDS011;15351;52.408;16.826;2023-04-21T10:59:10;10.30;;;5.70;;
26435;SDS011;15351;52.408;16.826;2023-04-21T11:01:44;10.30;;;5.20;;
26435;SDS011;15351;52.408;16.826;2023-04-21T11:04:15;6.20;;;5.40;;
26435;SDS011;15351;52.408;16.826;2023-04-21T11:10:01;8.90;;;5.40;;
26435;SDS011;15351;52.408;16.826;2023-04-21T11:12:40;7.10;;;5.30;;
26435;SDS011;15351;52.408;16.826;2023-04-21T11:15:16;10.10;;;5.60;;
26435;SDS011;15351;52.408;16.826;2023-04-21T11:18:00;7.90;;;5.70;;
26435;SDS011;15351;52.408;16.826;2023-04-21T11:20:30;9.50;;;5.40;;
26435;SDS011;15351;52.408;16.826;2023-04-21T11:23:02;7.00;;;5.10;;
26435;SDS011;15351;52.408;16.826;2023-04-21T11:25:35;7.40;;;5.20;;
26435;SDS011;15351;52.408;16.826;2023-04-21T11:28:04;7.50;;;5.20;;
26435;SDS011;15351;52.408;16.826;2023-04-21T11:30:32;6.40;;;5.20;;
26435;SDS011;15351;52.408;16.826;2023-04-21T11:33:04;9.50;;;5.10;;
26435;SDS011;15351;52.408;16.826;2023-04-21T11:35:43;7.50;;;4.80;;
26435;SDS011;15351;52.408;16.826;2023-04-21T11:38:18;7.80;;;5.10;;
26435;SDS011;15351;52.408;16.826;2023-04-21T11:41:00;8.60;;;4.90;;
26435;SDS011;15351;52.408;16.826;2023-04-21T11:43:27;8.70;;;5.60;;
26435;SDS011;15351;52.408;16.826;2023-04-21T11:46:09;6.30;;;5.20;;
26435;SDS011;15351;52.408;16.826;2023-04-21T11:51:25;9.20;;;5.60;;
26435;SDS011;15351;52.408;16.826;2023-04-21T11:54:22;7.50;;;5.10;;
26435;SDS011;15351;52.408;16.826;2023-04-21T11:57:02;7.40;;;5.20;;
26435;SDS011;15351;52.408;16.826;2023-04-21T12:00:16;8.00;;;5.10;;
26435;SDS011;15351;52.408;16.826;2023-04-21T12:02:52;7.80;;;5.20;;
26435;SDS011;15351;52.408;16.826;2023-04-21T12:08:36;7.80;;;5.30;;
26435;SDS011;15351;52.408;16.826;2023-04-21T12:11:06;7.80;;;5.30;;
26435;SDS011;15351;52.408;16.826;2023-04-21T12:13:50;9.10;;;5.50;;
26435;SDS011;15351;52.408;16.826;2023-04-21T12:16:31;7.80;;;5.20;;
26435;SDS011;15351;52.408;16.826;2023-04-21T12:19:48;8.40;;;5.20;;
26435;SDS011;15351;52.408;16.826;2023-04-21T12:22:18;6.50;;;5.20;;
26435;SDS011;15351;52.408;16.826;2023-04-21T12:25:06;10.40;;;5.30;;
26435;SDS011;15351;52.408;16.826;2023-04-21T12:28:15;6.70;;;5.30;;
26435;SDS011;15351;52.408;16.826;2023-04-21T12:31:23;7.80;;;5.40;;
26435;SDS011;15351;52.408;16.826;2023-04-21T12:33:58;8.00;;;5.20;;
26435;SDS011;15351;52.408;16.826;2023-04-21T12:37:03;6.60;;;5.50;;
26435;SDS011;15351;52.408;16.826;2023-04-21T12:39:52;8.20;;;5.30;;
26435;SDS011;15351;52.408;16.826;2023-04-21T12:42:39;7.70;;;5.50;;
26435;SDS011;15351;52.408;16.826;2023-04-21T12:49:17;8.20;;;5.10;;
26435;SDS011;15351;52.408;16.826;2023-04-21T12:52:08;7.70;;;5.00;;
26435;SDS011;15351;52.408;16.826;2023-04-21T12:55:01;9.90;;;4.90;;
26435;SDS011;15351;52.408;16.826;2023-04-21T12:58:12;8.60;;;5.60;;
26435;SDS011;15351;52.408;16.826;2023-04-21T13:01:00;7.20;;;5.00;;
26435;SDS011;15351;52.408;16.826;2023-04-21T13:03:35;7.80;;;4.90;;
26435;SDS011;15351;52.408;16.826;2023-04-21T13:06:24;7.60;;;5.00;;
26435;SDS011;15351;52.408;16.826;2023-04-21T13:09:03;6.80;;;4.70;;
26435;SDS011;15351;52.408;16.826;2023-04-21T13:11:44;6.90;;;5.00;;
26435;SDS011;15351;52.408;16.826;2023-04-21T13:14:30;6.60;;;4.80;;
26435;SDS011;15351;52.408;16.826;2023-04-21T13:17:43;6.80;;;4.70;;
26435;SDS011;15351;52.408;16.826;2023-04-21T13:20:21;8.90;;;4.70;;
26435;SDS011;15351;52.408;16.826;2023-04-21T13:23:16;7.70;;;5.20;;
26435;SDS011;15351;52.408;16.826;2023-04-21T13:25:48;8.90;;;4.80;;
26435;SDS011;15351;52.408;16.826;2023-04-21T13:28:20;8.40;;;5.20;;
26435;SDS011;15351;52.408;16.826;2023-04-21T13:30:47;6.80;;;4.80;;
26435;SDS011;15351;52.408;16.826;2023-04-21T13:33:26;7.40;;;5.00;;
26435;SDS011;15351;52.408;16.826;2023-04-21T13:35:54;9.00;;;5.20;;
26435;SDS011;15351;52.408;16.826;2023-04-21T13:38:36;6.40;;;4.70;;
26435;SDS011;15351;52.408;16.826;2023-04-21T13:41:03;7.40;;;5.10;;
26435;SDS011;15351;52.408;16.826;2023-04-21T13:44:05;11.90;;;5.50;;
26435;SDS011;15351;52.408;16.826;2023-04-21T13:47:02;6.90;;;4.60;;
26435;SDS011;15351;52.408;16.826;2023-04-21T13:50:11;6.80;;;4.70;;
26435;SDS011;15351;52.408;16.826;2023-04-21T13:53:08;13.70;;;5.10;;
26435;SDS011;15351;52.408;16.826;2023-04-21T13:55:53;6.00;;;4.50;;
26435;SDS011;15351;52.408;16.826;2023-04-21T13:58:24;5.90;;;4.70;;
26435;SDS011;15351;52.408;16.826;2023-04-21T14:00:53;9.30;;;5.00;;
26435;SDS011;15351;52.408;16.826;2023-04-21T14:03:28;5.90;;;4.70;;
26435;SDS011;15351;52.408;16.826;2023-04-21T14:06:01;6.70;;;4.70;;
26435;SDS011;15351;52.408;16.826;2023-04-21T14:09:12;7.50;;;5.00;;
26435;SDS011;15351;52.408;16.826;2023-04-21T14:12:04;6.80;;;4.80;;
26435;SDS011;15351;52.408;16.826;2023-04-21T14:14:48;13.20;;;5.30;;
26435;SDS011;15351;52.408;16.826;2023-04-21T14:17:16;8.20;;;4.90;;
26435;SDS011;15351;52.408;16.826;2023-04-21T14:19:43;9.60;;;5.00;;
26435;SDS011;15351;52.408;16.826;2023-04-21T14:25:08;6.40;;;4.90;;
26435;SDS011;15351;52.408;16.826;2023-04-21T14:27:38;6.80;;;5.00;;
26435;SDS011;15351;52.408;16.826;2023-04-21T14:38:32;8.60;;;4.50;;
26435;SDS011;15351;52.408;16.826;2023-04-21T14:41:04;7.70;;;4.60;;
26435;SDS011;15351;52.408;16.826;2023-04-21T14:43:43;6.10;;;4.40;;
26435;SDS011;15351;52.408;16.826;2023-04-21T14:46:30;6.50;;;4.60;;
26435;SDS011;15351;52.408;16.826;2023-04-21T14:49:22;6.90;;;4.40;;
26435;SDS011;15351;52.408;16.826;2023-04-21T14:52:05;7.90;;;4.30;;
26435;SDS011;15351;52.408;16.826;2023-04-21T14:54:33;10.10;;;4.50;;
26435;SDS011;15351;52.408;16.826;2023-04-21T14:57:02;8.40;;;4.60;;
26435;SDS011;15351;52.408;16.826;2023-04-21T14:59:29;9.00;;;4.60;;
26435;SDS011;15351;52.408;16.826;2023-04-21T15:01:57;6.00;;;4.80;;
26435;SDS011;15351;52.408;16.826;2023-04-21T15:04:25;8.60;;;5.70;;
26435;SDS011;15351;52.408;16.826;2023-04-21T15:06:55;7.00;;;4.80;;
26435;SDS011;15351;52.408;16.826;2023-04-21T15:09:35;8.60;;;4.60;;
26435;SDS011;15351;52.408;16.826;2023-04-21T15:12:04;7.00;;;4.80;;
26435;SDS011;15351;52.408;16.826;2023-04-21T15:14:32;6.40;;;4.50;;
26435;SDS011;15351;52.408;16.826;2023-04-21T15:17:19;5.60;;;4.40;;
26435;SDS011;15351;52.408;16.826;2023-04-21T15:19:49;7.90;;;4.70;;
26435;SDS011;15351;52.408;16.826;2023-04-21T15:22:30;8.20;;;4.80;;
26435;SDS011;15351;52.408;16.826;2023-04-21T15:25:09;6.50;;;4.70;;
26435;SDS011;15351;52.408;16.826;2023-04-21T15:27:47;5.50;;;4.50;;
26435;SDS011;15351;52.408;16.826;2023-04-21T15:31:13;7.90;;;4.40;;
26435;SDS011;15351;52.408;16.826;2023-04-21T15:33:49;5.80;;;4.90;;
26435;SDS011;15351;52.408;16.826;2023-04-21T15:36:31;6.10;;;4.50;;
26435;SDS011;15351;52.408;16.826;2023-04-21T15:42:48;7.80;;;4.50;;
26435;SDS011;15351;52.408;16.826;2023-04-21T15:45:16;6.20;;;4.60;;
26435;SDS011;15351;52.408;16.826;2023-04-21T15:47:56;9.60;;;4.70;;
26435;SDS011;15351;52.408;16.826;2023-04-21T15:50:50;6.00;;;4.30;;
26435;SDS011;15351;52.408;16.826;2023-04-21T15:53:58;7.00;;;4.40;;
26435;SDS011;15351;52.408;16.826;2023-04-21T15:56:29;6.40;;;4.30;;
26435;SDS011;15351;52.408;16.826;2023-04-21T15:58:56;8.00;;;4.20;;
26435;SDS011;15351;52.408;16.826;2023-04-21T16:01:23;5.40;;;4.20;;
26435;SDS011;15351;52.408;16.826;2023-04-21T16:03:53;10.00;;;4.70;;
26435;SDS011;15351;52.408;16.826;2023-04-21T16:06:35;6.40;;;4.60;;
26435;SDS011;15351;52.408;16.826;2023-04-21T16:09:03;15.00;;;5.90;;
26435;SDS011;15351;52.408;16.826;2023-04-21T16:11:31;8.40;;;4.50;;
26435;SDS011;15351;52.408;16.826;2023-04-21T16:14:09;7.00;;;4.90;;
26435;SDS011;15351;52.408;16.826;2023-04-21T16:17:02;7.60;;;4.70;;
26435;SDS011;15351;52.408;16.826;2023-04-21T16:20:23;7.40;;;4.50;;
26435;SDS011;15351;52.408;16.826;2023-04-21T16:23:16;6.60;;;4.60;;
26435;SDS011;15351;52.408;16.826;2023-04-21T16:25:52;9.10;;;4.80;;
26435;SDS011;15351;52.408;16.826;2023-04-21T16:28:30;6.50;;;4.40;;
26435;SDS011;15351;52.408;16.826;2023-04-21T16:30:58;7.40;;;4.50;;
26435;SDS011;15351;52.408;16.826;2023-04-21T16:33:34;8.20;;;4.70;;
26435;SDS011;15351;52.408;16.826;2023-04-21T16:36:06;7.10;;;4.60;;
26435;SDS011;15351;52.408;16.826;2023-04-21T16:38:55;7.40;;;4.50;;
26435;SDS011;15351;52.408;16.826;2023-04-21T16:42:05;6.90;;;4.40;;
26435;SDS011;15351;52.408;16.826;2023-04-21T16:45:11;9.80;;;4.80;;
26435;SDS011;15351;52.408;16.826;2023-04-21T16:47:55;7.80;;;4.50;;
26435;SDS011;15351;52.408;16.826;2023-04-21T16:50:34;8.60;;;4.60;;
26435;SDS011;15351;52.408;16.826;2023-04-21T16:56:27;9.00;;;4.80;;
26435;SDS011;15351;52.408;16.826;2023-04-21T16:58:55;6.20;;;4.30;;
26435;SDS011;15351;52.408;16.826;2023-04-21T17:01:36;7.50;;;4.40;;
26435;SDS011;15351;52.408;16.826;2023-04-21T17:04:27;10.10;;;4.50;;
26435;SDS011;15351;52.408;16.826;2023-04-21T17:06:56;7.50;;;4.50;;
26435;SDS011;15351;52.408;16.826;2023-04-21T17:09:49;8.30;;;4.40;;
26435;SDS011;15351;52.408;16.826;2023-04-21T17:12:33;8.20;;;4.20;;
26435;SDS011;15351;52.408;16.826;2023-04-21T17:15:01;13.50;;;4.70;;
26435;SDS011;15351;52.408;16.826;2023-04-21T17:17:30;13.30;;;4.70;;
26435;SDS011;15351;52.408;16.826;2023-04-21T17:20:13;15.40;;;4.80;;
26435;SDS011;15351;52.408;16.826;2023-04-21T17:22:47;9.80;;;4.40;;
26435;SDS011;15351;52.408;16.826;2023-04-21T17:25:15;13.10;;;5.00;;
26435;SDS011;15351;52.408;16.826;2023-04-21T17:28:10;11.00;;;4.80;;
26435;SDS011;15351;52.408;16.826;2023-04-21T17:31:10;8.50;;;4.20;;
26435;SDS011;15351;52.408;16.826;2023-04-21T17:34:08;11.80;;;4.70;;
26435;SDS011;15351;52.408;16.826;2023-04-21T17:36:46;14.50;;;4.30;;
26435;SDS011;15351;52.408;16.826;2023-04-21T17:40:07;9.00;;;4.30;;
26435;SDS011;15351;52.408;16.826;2023-04-21T17:42:59;11.10;;;4.60;;
26435;SDS011;15351;52.408;16.826;2023-04-21T17:51:57;11.00;;;4.60;;
26435;SDS011;15351;52.408;16.826;2023-04-21T17:55:12;11.70;;;4.40;;
26435;SDS011;15351;52.408;16.826;2023-04-21T17:57:41;13.00;;;4.80;;
26435;SDS011;15351;52.408;16.826;2023-04-21T18:00:11;8.30;;;4.20;;
26435;SDS011;15351;52.408;16.826;2023-04-21T18:04:27;9.70;;;4.60;;
26435;SDS011;15351;52.408;16.826;2023-04-21T18:07:25;7.50;;;4.60;;